Time;durP1;ratioP1;P1;durP2;ratioP2;P2;SDS_P1;SDS_P2;PMS_P1;PMS_P2;Temp;Humidity;BMP_temperature;BMP_pressure;BME280_temperature;BME280_humidity;BME280_pressure;Samples;Min_cycle;Max_cycle;Signal;HPM_P1;HPM_P2
2021/12/21 00:00:13;;;;;;;13.40;6.10;;;-0.50;99.90;;;;;;5025446;28;20045;-68
2021/12/21 00:02:44;;;;;;;13.07;5.82;;;-0.50;99.90;;;;;;5020924;28;20706;-68
2021/12/21 00:05:16;;;;;;;12.57;5.93;;;-0.50;99.90;;;;;;5044714;28;20144;-68
2021/12/21 00:07:43;;;;;;;12.02;5.25;;;-0.50;99.90;;;;;;5040018;28;20059;-67
2021/12/21 00:10:11;;;;;;;;;;;-0.50;99.90;;;;;;5042565;28;20132;-68
2021/12/21 00:12:41;;;;;;;14.30;6.13;;;-0.50;99.90;;;;;;5039360;28;19917;-68
2021/12/21 00:15:20;;;;;;;13.00;5.63;;;-0.60;99.90;;;;;;5041140;28;20596;-68
2021/12/21 00:17:56;;;;;;;10.32;5.45;;;-0.60;99.90;;;;;;5040391;28;20052;-68
2021/12/21 00:25:20;;;;;;;10.85;5.97;;;-0.60;99.90;;;;;;5021901;28;20520;-67
2021/12/21 00:27:48;;;;;;;12.52;6.20;;;-0.60;99.90;;;;;;5023066;28;20513;-67
2021/12/21 00:30:15;;;;;;;13.77;4.90;;;-0.70;99.90;;;;;;5037258;28;20044;-68
2021/12/21 00:32:41;;;;;;;;;;;-0.70;99.90;;;;;;5044019;28;20409;-67
2021/12/21 00:35:07;;;;;;;14.60;5.50;;;-0.70;99.90;;;;;;5042040;28;19916;-68
2021/12/21 00:37:32;;;;;;;12.20;6.53;;;-0.70;99.90;;;;;;5020674;28;20037;-68
2021/12/21 00:39:58;;;;;;;16.63;6.47;;;-0.70;99.90;;;;;;5022235;28;20296;-68
2021/12/21 00:42:24;;;;;;;10.43;5.37;;;-0.70;99.90;;;;;;5026503;28;20071;-68
2021/12/21 00:44:50;;;;;;;12.60;5.87;;;-0.70;99.90;;;;;;5018934;28;20673;-68
2021/12/21 00:47:16;;;;;;;12.40;5.40;;;-0.70;99.90;;;;;;5042584;28;20030;-68
2021/12/21 00:49:45;;;;;;;14.88;6.63;;;-0.70;99.90;;;;;;5038864;28;20037;-68
2021/12/21 00:52:12;;;;;;;22.13;6.97;;;-0.70;99.90;;;;;;5032899;28;20067;-68
2021/12/21 00:54:38;;;;;;;12.20;6.55;;;-0.70;99.90;;;;;;5042146;28;20111;-67
2021/12/21 00:57:04;;;;;;;13.17;6.73;;;-0.70;99.90;;;;;;5042869;28;20324;-68
2021/12/21 00:59:34;;;;;;;13.02;6.68;;;-0.70;99.90;;;;;;5025857;28;20052;-67
2021/12/21 01:02:00;;;;;;;12.40;5.93;;;-0.80;99.90;;;;;;5036941;28;20099;-67
2021/12/21 01:04:33;;;;;;;13.52;6.65;;;-0.80;99.90;;;;;;5045519;28;20059;-68
2021/12/21 01:12:25;;;;;;;18.17;6.47;;;-0.90;99.90;;;;;;5028243;28;20048;-68
2021/12/21 01:17:28;;;;;;;13.98;5.97;;;-0.90;99.90;;;;;;5045506;28;20068;-68
2021/12/21 01:20:08;;;;;;;12.15;5.40;;;-0.90;99.90;;;;;;5042735;28;20468;-68
2021/12/21 01:33:35;;;;;;;9.82;4.50;;;-0.90;99.90;;;;;;5021794;28;20140;-68
2021/12/21 01:36:04;;;;;;;16.35;4.90;;;-0.90;99.90;;;;;;5026689;28;20140;-68
2021/12/21 01:38:46;;;;;;;11.15;5.07;;;-0.90;99.90;;;;;;5042114;28;20044;-68
2021/12/21 01:51:55;;;;;;;11.05;4.80;;;-1.00;99.90;;;;;;5040375;28;20049;-68
2021/12/21 01:54:21;;;;;;;10.73;5.07;;;-1.00;99.90;;;;;;5044833;28;20513;-67
2021/12/21 01:56:46;;;;;;;9.37;5.23;;;-1.00;99.90;;;;;;5023473;28;20269;-68
2021/12/21 01:59:12;;;;;;;9.57;4.77;;;-1.00;99.90;;;;;;5046200;28;20063;-68
2021/12/21 02:01:38;;;;;;;12.10;3.97;;;-1.00;99.90;;;;;;5008264;28;20545;-68
2021/12/21 02:04:03;;;;;;;9.10;4.43;;;-1.00;99.90;;;;;;5026084;28;20037;-68
2021/12/21 02:06:29;;;;;;;9.93;4.90;;;-1.10;99.90;;;;;;5046861;28;20387;-67
2021/12/21 02:08:56;;;;;;;8.83;4.30;;;-1.10;99.90;;;;;;5044180;28;20071;-67
2021/12/21 02:11:24;;;;;;;13.30;4.78;;;-1.10;99.90;;;;;;5044412;28;21866;-67
2021/12/21 02:13:52;;;;;;;9.55;4.85;;;-1.10;99.90;;;;;;5040255;28;20041;-68
2021/12/21 02:16:28;;;;;;;9.75;4.60;;;-1.10;99.90;;;;;;5044735;28;20037;-68
2021/12/21 02:19:03;;;;;;;9.68;4.38;;;-1.10;99.90;;;;;;5026965;28;20045;-68
2021/12/21 02:21:34;;;;;;;10.05;4.78;;;-1.10;99.90;;;;;;5023947;28;20041;-67
2021/12/21 02:24:06;;;;;;;14.65;5.70;;;-1.10;99.90;;;;;;5040763;28;20064;-67
2021/12/21 02:32:02;;;;;;;9.77;4.32;;;-1.20;99.90;;;;;;4963165;28;20499;-67
2021/12/21 02:34:28;;;;;;;8.65;5.03;;;-1.20;99.90;;;;;;4984613;28;20089;-67
2021/12/21 02:36:56;;;;;;;8.53;3.87;;;-1.20;99.90;;;;;;5012115;28;20080;-67
2021/12/21 02:39:24;;;;;;;11.57;4.57;;;-1.10;99.90;;;;;;5050416;28;20099;-67
2021/12/21 02:41:49;;;;;;;10.07;4.90;;;-1.20;99.90;;;;;;5046303;28;20049;-67
2021/12/21 02:44:16;;;;;;;9.07;4.93;;;-1.20;99.90;;;;;;5040464;28;20450;-67
2021/12/21 02:46:43;;;;;;;9.60;3.90;;;-1.20;99.90;;;;;;5042961;28;20040;-67
2021/12/21 02:49:09;;;;;;;;;;;-1.30;99.90;;;;;;5041442;28;20037;-67
2021/12/21 02:51:38;;;;;;;13.77;4.55;;;-1.30;99.90;;;;;;5027475;28;20277;-68
2021/12/21 02:54:04;;;;;;;11.43;4.47;;;-1.30;99.90;;;;;;5024366;28;20071;-67
2021/12/21 02:56:29;;;;;;;11.63;4.50;;;-1.20;99.90;;;;;;5046341;28;20064;-67
2021/12/21 02:58:55;;;;;;;10.17;4.57;;;-1.30;99.90;;;;;;5021496;28;20499;-67
2021/12/21 03:01:21;;;;;;;10.97;4.67;;;-1.30;99.90;;;;;;5048527;28;20051;-67
2021/12/21 03:03:46;;;;;;;15.60;5.30;;;-1.30;99.90;;;;;;5045460;28;20120;-67
2021/12/21 03:06:33;;;;;;;9.80;4.07;;;-1.30;99.90;;;;;;5030222;28;20048;-67
2021/12/21 03:08:58;;;;;;;12.45;4.20;;;-1.30;99.90;;;;;;5045067;28;20106;-67
2021/12/21 03:11:48;;;;;;;10.30;4.47;;;-1.30;99.90;;;;;;5046888;28;20366;-67
2021/12/21 03:14:15;;;;;;;11.10;3.97;;;-1.30;99.90;;;;;;5046757;28;20239;-67
2021/12/21 03:16:41;;;;;;;;;;;-1.30;99.90;;;;;;5050182;28;20039;-67
2021/12/21 03:19:11;;;;;;;11.93;4.68;;;-1.40;99.90;;;;;;5045133;28;19917;-67
2021/12/21 03:21:37;;;;;;;6.60;3.55;;;-1.40;99.90;;;;;;5045228;28;20047;-68
2021/12/21 03:24:04;;;;;;;9.80;4.22;;;-1.40;99.90;;;;;;5042309;28;20037;-67
2021/12/21 03:26:30;;;;;;;9.93;3.83;;;-1.40;99.90;;;;;;5046172;28;20185;-67
2021/12/21 03:28:56;;;;;;;10.33;3.93;;;-1.40;99.90;;;;;;5045410;28;20135;-67
2021/12/21 03:31:22;;;;;;;10.65;3.97;;;-1.40;99.90;;;;;;5026943;28;20484;-67
2021/12/21 03:33:48;;;;;;;5.30;2.77;;;-1.40;99.90;;;;;;5048050;28;20040;-68
2021/12/21 03:36:18;;;;;;;7.60;3.33;;;-1.40;99.90;;;;;;5046606;28;20522;-68
2021/12/21 03:39:28;;;;;;;5.78;3.25;;;-1.50;99.90;;;;;;5024070;28;20042;-68
2021/12/21 03:41:41;;;;;;;9.02;4.70;;;-1.50;99.90;;;;;;5016737;28;20057;-68
2021/12/21 03:44:09;;;;;;;7.30;3.83;;;-1.50;99.90;;;;;;5046214;28;20041;-67
2021/12/21 03:46:36;;;;;;;8.45;3.33;;;-1.50;99.90;;;;;;5018469;28;20041;-68
2021/12/21 03:49:17;;;;;;;6.57;3.40;;;-1.40;99.90;;;;;;5037326;28;20063;-68
2021/12/21 03:51:43;;;;;;;10.32;4.22;;;-1.40;99.90;;;;;;5025187;28;20053;-68
2021/12/21 03:54:09;;;;;;;5.67;3.20;;;-1.40;99.90;;;;;;5046757;28;20048;-68
2021/12/21 03:56:40;;;;;;;6.17;3.90;;;-1.50;99.90;;;;;;5044162;28;20517;-68
2021/12/21 03:59:06;;;;;;;9.15;4.13;;;-1.40;99.90;;;;;;5026658;28;20049;-68
2021/12/21 04:01:31;;;;;;;7.87;3.50;;;-1.50;99.90;;;;;;5027527;28;20128;-67
2021/12/21 04:03:57;;;;;;;10.13;3.90;;;-1.50;99.90;;;;;;5046117;28;20602;-67
2021/12/21 04:06:22;;;;;;;8.83;3.40;;;-1.60;99.90;;;;;;5027416;28;20037;-68
2021/12/21 04:08:48;;;;;;;7.87;3.50;;;-1.60;99.90;;;;;;5041092;28;20033;-68
2021/12/21 04:11:14;;;;;;;9.70;3.60;;;-1.60;99.90;;;;;;5049210;28;20105;-68
2021/12/21 04:13:39;;;;;;;6.57;2.93;;;-1.60;99.90;;;;;;5043339;28;20254;-68
2021/12/21 04:16:06;;;;;;;6.37;3.07;;;-1.60;99.90;;;;;;5047344;28;20464;-68
2021/12/21 04:18:38;;;;;;;9.57;3.17;;;-1.60;99.90;;;;;;5043240;28;20044;-68
2021/12/21 04:21:05;;;;;;;7.30;3.03;;;-1.60;99.90;;;;;;5034409;28;20483;-68
2021/12/21 04:23:34;;;;;;;7.20;2.85;;;-1.60;99.90;;;;;;5044826;28;20044;-68
2021/12/21 04:26:00;;;;;;;8.18;3.40;;;-1.60;99.90;;;;;;5042559;28;20080;-68
2021/12/21 04:28:25;;;;;;;4.67;2.53;;;-1.70;99.90;;;;;;5021785;28;20228;-68
2021/12/21 04:30:52;;;;;;;4.30;2.83;;;-1.70;99.90;;;;;;5027926;28;20037;-67
2021/12/21 04:33:17;;;;;;;5.85;2.33;;;-1.70;99.90;;;;;;5044491;28;20045;-68
2021/12/21 04:35:43;;;;;;;5.57;2.80;;;-1.70;99.90;;;;;;5044588;28;20478;-68
2021/12/21 04:38:20;;;;;;;8.07;3.17;;;-1.70;99.90;;;;;;5030351;28;20087;-68
2021/12/21 04:40:53;;;;;;;4.50;2.53;;;-1.80;99.90;;;;;;5047765;28;20515;-68
2021/12/21 04:43:18;;;;;;;6.85;2.88;;;-1.80;99.90;;;;;;5043436;28;20048;-70
2021/12/21 04:45:44;;;;;;;7.00;2.80;;;-1.80;99.90;;;;;;5044819;28;20047;-71
2021/12/21 04:48:10;;;;;;;9.87;2.83;;;-1.80;99.90;;;;;;5046683;28;20041;-71
2021/12/21 04:50:35;;;;;;;7.50;3.43;;;-1.80;99.90;;;;;;5028274;28;20473;-71
2021/12/21 04:53:01;;;;;;;4.87;2.27;;;-1.80;99.90;;;;;;5030109;28;20063;-73
2021/12/21 04:55:27;;;;;;;6.50;2.67;;;-1.80;99.90;;;;;;5044759;28;20396;-72
2021/12/21 04:57:52;;;;;;;6.50;2.67;;;-1.80;99.90;;;;;;5042161;28;20384;-71
2021/12/21 05:00:18;;;;;;;6.53;2.80;;;-1.80;99.90;;;;;;5045750;28;20041;-72
2021/12/21 05:02:44;;;;;;;7.38;3.13;;;-1.80;99.90;;;;;;5043374;28;20029;-70
2021/12/21 05:05:10;;;;;;;7.73;2.90;;;-1.90;99.90;;;;;;5044079;28;20044;-71
2021/12/21 05:07:38;;;;;;;6.38;3.17;;;-1.90;99.90;;;;;;5028203;28;20456;-70
2021/12/21 05:10:08;;;;;;;4.72;2.90;;;-1.90;99.90;;;;;;5047369;28;20044;-71
2021/12/21 05:12:35;;;;;;;9.57;2.65;;;-1.90;99.90;;;;;;5027328;28;20089;-72
2021/12/21 05:15:00;;;;;;;7.72;2.97;;;-1.90;99.90;;;;;;5043029;28;20049;-71
2021/12/21 05:17:26;;;;;;;8.87;3.03;;;-1.80;99.90;;;;;;5039431;28;20043;-71
2021/12/21 05:19:51;;;;;;;5.47;2.80;;;-1.90;99.90;;;;;;5048470;28;20041;-70
2021/12/21 05:22:17;;;;;;;5.93;3.30;;;-1.90;99.90;;;;;;5045899;28;20041;-72
2021/12/21 05:24:43;;;;;;;5.97;2.63;;;-1.90;99.90;;;;;;5047956;28;20043;-70
2021/12/21 05:27:09;;;;;;;7.00;3.08;;;-1.90;99.90;;;;;;5045026;28;20401;-71
2021/12/21 05:29:35;;;;;;;7.63;2.80;;;-1.90;99.90;;;;;;5050792;28;20304;-71
2021/12/21 05:32:02;;;;;;;11.20;3.53;;;-1.90;99.90;;;;;;5042922;28;20044;-71
2021/12/21 05:34:28;;;;;;;;;;;-1.90;99.90;;;;;;5032041;28;20229;-70
2021/12/21 05:36:53;;;;;;;7.82;3.05;;;-2.00;99.90;;;;;;5050074;28;19917;-70
2021/12/21 05:39:23;;;;;;;10.57;3.43;;;-2.00;99.90;;;;;;5054374;28;20120;-72
2021/12/21 05:44:20;;;;;;;7.22;3.50;;;-2.00;99.90;;;;;;5047315;28;20053;-72
2021/12/21 05:46:46;;;;;;;8.45;2.83;;;-2.00;99.90;;;;;;5028096;28;20025;-71
2021/12/21 05:49:12;;;;;;;8.48;3.88;;;-2.00;99.90;;;;;;5026436;28;20064;-71
2021/12/21 05:51:38;;;;;;;7.28;3.78;;;-2.00;99.90;;;;;;5025677;28;20216;-72
2021/12/21 05:54:04;;;;;;;9.17;3.73;;;-1.90;99.90;;;;;;5029619;28;20485;-71
2021/12/21 05:56:30;;;;;;;11.83;3.63;;;-2.00;99.90;;;;;;5042454;28;20082;-76
2021/12/21 05:58:55;;;;;;;5.43;3.17;;;-2.00;99.90;;;;;;5029344;28;20688;-73
2021/12/21 06:01:21;;;;;;;8.10;3.03;;;-2.00;99.90;;;;;;5050400;28;20091;-74
2021/12/21 06:03:47;;;;;;;8.13;3.43;;;-2.00;99.90;;;;;;5032321;28;20052;-72
2021/12/21 06:06:15;;;;;;;7.93;3.40;;;-2.00;99.90;;;;;;5045443;28;20045;-76
2021/12/21 06:08:42;;;;;;;11.90;3.55;;;-2.00;99.90;;;;;;5014492;28;20402;-72
2021/12/21 06:11:12;;;;;;;7.15;4.00;;;-2.00;99.90;;;;;;5033573;28;20045;-73
2021/12/21 06:27:24;;;;;;;14.18;4.25;;;-2.10;99.90;;;;;;5028671;28;20041;-71
2021/12/21 06:29:50;;;;;;;7.67;3.73;;;-2.00;99.90;;;;;;5043447;28;20527;-71
2021/12/21 06:32:15;;;;;;;8.83;4.33;;;-2.00;99.90;;;;;;5040015;28;20060;-70
2021/12/21 06:34:41;;;;;;;9.67;4.17;;;-2.00;99.90;;;;;;5047442;28;20029;-71
2021/12/21 06:37:08;;;;;;;10.73;4.05;;;-2.10;99.90;;;;;;5039777;28;20094;-70
2021/12/21 06:39:33;;;;;;;9.70;4.60;;;-2.10;99.90;;;;;;5052276;28;20037;-70
2021/12/21 06:42:01;;;;;;;7.27;3.93;;;-2.10;99.90;;;;;;5027700;28;20040;-71
2021/12/21 06:44:30;;;;;;;9.93;4.47;;;-2.10;99.90;;;;;;5043299;28;20049;-71
2021/12/21 06:52:34;;;;;;;11.80;5.20;;;-2.10;99.90;;;;;;5027485;28;20423;-71
2021/12/21 06:55:00;;;;;;;14.65;5.55;;;-2.10;99.90;;;;;;5046074;28;20036;-71
2021/12/21 06:57:26;;;;;;;9.98;5.40;;;-2.10;99.90;;;;;;5053459;28;20094;-72
2021/12/21 06:59:52;;;;;;;9.90;5.25;;;-2.10;99.90;;;;;;5045066;28;20041;-71
2021/12/21 07:02:19;;;;;;;;;;;-2.20;99.90;;;;;;5053724;28;20422;-67
2021/12/21 07:04:44;;;;;;;9.93;5.25;;;-2.20;99.90;;;;;;5049911;28;19916;-68
2021/12/21 07:07:11;;;;;;;10.67;4.80;;;-2.20;99.90;;;;;;5031419;28;20036;-68
2021/12/21 07:09:42;;;;;;;11.70;5.72;;;-2.20;99.90;;;;;;5041344;28;20067;-68
2021/12/21 07:20:05;;;;;;;9.73;5.25;;;-2.20;99.90;;;;;;5049399;28;20482;-68
2021/12/21 07:22:31;;;;;;;9.27;5.45;;;-2.20;99.90;;;;;;5055758;28;20032;-68
2021/12/21 07:24:56;;;;;;;12.00;4.80;;;-2.20;99.90;;;;;;5045486;28;20433;-68
2021/12/21 07:27:22;;;;;;;11.33;6.00;;;-2.20;99.90;;;;;;5039476;28;20516;-68
2021/12/21 07:29:49;;;;;;;16.13;6.07;;;-2.20;99.90;;;;;;5026491;28;20082;-68
2021/12/21 07:32:15;;;;;;;13.60;6.25;;;-2.20;99.90;;;;;;5044465;28;20044;-68
2021/12/21 07:34:41;;;;;;;15.63;6.53;;;-2.20;99.90;;;;;;5042523;28;20044;-68
2021/12/21 07:37:09;;;;;;;12.67;5.87;;;-2.20;99.90;;;;;;5028955;28;20068;-68
2021/12/21 07:39:36;;;;;;;12.85;6.85;;;-2.20;99.90;;;;;;5046604;28;20075;-68
2021/12/21 07:42:01;;;;;;;17.73;6.65;;;-2.20;99.90;;;;;;5046032;28;20072;-68
2021/12/21 07:44:30;;;;;;;22.63;8.68;;;-2.20;99.90;;;;;;5042540;28;20037;-68
2021/12/21 07:46:55;;;;;;;23.17;10.03;;;-2.20;99.90;;;;;;5044135;28;20056;-68
2021/12/21 07:49:21;;;;;;;20.67;7.90;;;-2.20;99.90;;;;;;5026700;28;20086;-68
2021/12/21 07:51:48;;;;;;;16.83;7.93;;;-2.20;99.90;;;;;;5044915;28;20087;-68
2021/12/21 07:54:18;;;;;;;18.40;8.25;;;-2.20;99.90;;;;;;5028694;28;20056;-68
2021/12/21 07:56:44;;;;;;;20.45;8.55;;;-2.20;99.90;;;;;;5026989;28;20452;-68
2021/12/21 07:59:11;;;;;;;20.42;8.07;;;-2.20;99.90;;;;;;5040589;28;20037;-68
2021/12/21 08:01:40;;;;;;;21.75;8.13;;;-2.20;99.90;;;;;;5032267;28;20115;-68
2021/12/21 08:04:09;;;;;;;15.93;7.55;;;-2.20;99.90;;;;;;5043351;28;20037;-68
2021/12/21 08:06:36;;;;;;;25.10;7.30;;;-2.20;99.90;;;;;;5047074;28;20333;-68
2021/12/21 08:09:04;;;;;;;21.17;8.18;;;-2.20;99.90;;;;;;5033256;28;20082;-68
2021/12/21 08:14:03;;;;;;;19.48;7.57;;;-2.20;99.90;;;;;;5052982;28;20037;-68
2021/12/21 08:16:29;;;;;;;25.38;7.50;;;-2.20;99.90;;;;;;5034913;28;20044;-68
2021/12/21 08:18:55;;;;;;;18.37;7.03;;;-2.20;99.90;;;;;;5052214;28;20146;-68
2021/12/21 08:21:23;;;;;;;23.53;6.37;;;-2.20;99.90;;;;;;5037156;28;20307;-68
2021/12/21 08:23:48;;;;;;;21.58;8.13;;;-2.20;99.90;;;;;;5034356;28;20044;-68
2021/12/21 08:26:14;;;;;;;19.13;7.87;;;-2.20;99.90;;;;;;5026548;28;20033;-68
2021/12/21 08:28:40;;;;;;;19.63;6.93;;;-2.20;99.90;;;;;;5058571;28;20037;-68
2021/12/21 08:31:11;;;;;;;16.70;8.88;;;-2.10;99.90;;;;;;5051114;28;20043;-68
2021/12/21 08:33:38;;;;;;;22.45;7.70;;;-2.10;99.90;;;;;;5049942;28;20032;-68
2021/12/21 08:36:07;;;;;;;;;;;-2.10;99.90;;;;;;5051362;28;20501;-68
2021/12/21 08:38:36;;;;;;;21.67;7.60;;;-2.10;99.90;;;;;;5033812;28;19983;-68
2021/12/21 08:41:02;;;;;;;18.35;7.47;;;-2.10;99.90;;;;;;5049627;28;20272;-68
2021/12/21 08:43:29;;;;;;;23.10;7.88;;;-2.00;99.90;;;;;;5047160;28;20514;-68
2021/12/21 08:45:56;;;;;;;23.25;9.18;;;-2.00;99.90;;;;;;5037062;28;20643;-68
2021/12/21 08:48:22;;;;;;;;;;;-2.00;99.90;;;;;;5048887;28;20037;-68
2021/12/21 08:50:50;;;;;;;17.77;7.75;;;-1.90;99.90;;;;;;5042872;28;19983;-68
2021/12/21 08:53:17;;;;;;;14.05;9.02;;;-1.90;99.90;;;;;;5029892;28;20036;-68
2021/12/21 08:55:43;;;;;;;23.63;9.30;;;-1.90;99.90;;;;;;5016718;28;20102;-68
2021/12/21 08:58:11;;;;;;;18.35;8.10;;;-1.80;99.90;;;;;;5030381;28;20033;-68
2021/12/21 09:00:36;;;;;;;25.50;8.32;;;-1.70;99.90;;;;;;5054754;28;20555;-68
2021/12/21 09:03:03;;;;;;;19.43;8.27;;;-1.80;99.90;;;;;;5054157;28;20127;-68
2021/12/21 09:05:30;;;;;;;20.58;8.85;;;-1.70;99.90;;;;;;5046375;28;20308;-68
2021/12/21 09:07:56;;;;;;;22.80;8.70;;;-1.70;99.90;;;;;;5049110;28;20049;-68
2021/12/21 09:10:23;;;;;;;18.70;7.93;;;-1.70;99.90;;;;;;5052833;28;20362;-68
2021/12/21 09:12:50;;;;;;;17.02;8.25;;;-1.60;99.90;;;;;;5052168;28;20049;-68
2021/12/21 09:15:17;;;;;;;23.00;9.05;;;-1.50;99.90;;;;;;5031960;28;20516;-68
2021/12/21 09:17:44;;;;;;;23.15;8.45;;;-1.50;99.90;;;;;;5048789;28;20102;-67
2021/12/21 09:20:14;;;;;;;16.92;8.45;;;-1.40;99.90;;;;;;5046731;28;20059;-67
2021/12/21 09:22:40;;;;;;;17.30;9.05;;;-1.30;99.90;;;;;;5056454;28;20487;-67
2021/12/21 09:25:07;;;;;;;18.00;8.27;;;-1.10;99.90;;;;;;5039500;28;20039;-67
2021/12/21 09:27:32;;;;;;;16.90;8.25;;;-1.00;99.90;;;;;;5041849;28;20044;-67
2021/12/21 09:29:58;;;;;;;19.43;9.40;;;-0.90;99.90;;;;;;5051206;28;20033;-67
2021/12/21 09:32:25;;;;;;;14.10;9.47;;;-0.80;99.90;;;;;;5043820;28;20063;-67
2021/12/21 09:34:50;;;;;;;;;;;-0.70;99.90;;;;;;5048771;28;20041;-67
2021/12/21 09:37:19;;;;;;;18.60;8.07;;;-0.60;99.90;;;;;;5056553;28;19963;-67
2021/12/21 09:39:48;;;;;;;20.98;9.43;;;-0.50;99.90;;;;;;5049450;28;20449;-67
2021/12/21 09:42:16;;;;;;;19.65;9.02;;;-0.40;99.90;;;;;;5032178;28;20057;-67
2021/12/21 09:44:43;;;;;;;24.08;9.70;;;-0.30;99.90;;;;;;5046233;28;20056;-67
2021/12/21 09:47:11;;;;;;;15.55;8.70;;;-0.20;99.90;;;;;;5048136;28;20036;-67
2021/12/21 09:49:37;;;;;;;25.52;9.52;;;-0.10;99.90;;;;;;5044677;28;20489;-67
2021/12/21 09:52:06;;;;;;;23.80;9.07;;;0.00;99.90;;;;;;5050591;28;20076;-67
2021/12/21 09:54:34;;;;;;;16.13;8.27;;;0.10;99.90;;;;;;5050855;28;20032;-67
2021/12/21 09:57:00;;;;;;;18.63;8.95;;;0.20;99.90;;;;;;5028646;28;20194;-67
2021/12/21 09:59:27;;;;;;;17.65;8.77;;;0.30;99.90;;;;;;5049064;28;20520;-67
2021/12/21 10:01:56;;;;;;;15.23;8.35;;;0.40;99.90;;;;;;5050002;28;20073;-67
2021/12/21 10:04:22;;;;;;;20.42;9.02;;;0.50;99.90;;;;;;5031139;28;20040;-67
2021/12/21 10:06:50;;;;;;;18.15;7.97;;;0.60;99.90;;;;;;5050262;28;20043;-67
2021/12/21 10:09:18;;;;;;;20.45;8.95;;;0.70;99.90;;;;;;5051411;28;20041;-67
2021/12/21 10:11:47;;;;;;;14.80;8.10;;;0.90;99.90;;;;;;5048763;28;20041;-67
2021/12/21 10:14:15;;;;;;;12.40;6.95;;;1.00;99.90;;;;;;5010200;28;20033;-68
2021/12/21 10:16:41;;;;;;;16.13;7.15;;;1.10;99.90;;;;;;5050384;28;20040;-67
2021/12/21 10:19:08;;;;;;;15.30;7.75;;;1.20;99.90;;;;;;5049349;28;20515;-67
2021/12/21 10:21:44;;;;;;;21.05;8.57;;;1.30;99.90;;;;;;5029616;28;20056;-67
2021/12/21 10:24:20;;;;;;;15.15;6.88;;;1.40;99.90;;;;;;5033720;28;20040;-67
2021/12/21 10:26:46;;;;;;;18.67;7.70;;;1.50;99.90;;;;;;5045193;28;20414;-67
2021/12/21 10:29:15;;;;;;;17.40;6.57;;;1.50;99.90;;;;;;5048618;28;20033;-67
2021/12/21 10:31:45;;;;;;;13.63;6.70;;;1.60;99.90;;;;;;5043732;28;20044;-67
2021/12/21 10:34:17;;;;;;;16.75;7.53;;;1.70;99.90;;;;;;5029703;28;20055;-67
2021/12/21 10:36:49;;;;;;;15.00;6.55;;;1.80;99.90;;;;;;5046729;28;20398;-67
2021/12/21 10:39:23;;;;;;;16.33;6.63;;;1.90;99.90;;;;;;5042792;28;20501;-67
2021/12/21 10:41:52;;;;;;;18.30;6.57;;;2.00;99.90;;;;;;5048476;28;20524;-67
2021/12/21 10:44:19;;;;;;;15.50;6.68;;;2.10;99.90;;;;;;5028856;28;20135;-67
2021/12/21 10:46:49;;;;;;;14.82;5.72;;;2.20;99.90;;;;;;5043364;28;20654;-67
2021/12/21 10:49:23;;;;;;;17.73;6.65;;;2.30;99.90;;;;;;5029747;28;20151;-67
2021/12/21 10:52:04;;;;;;;14.50;6.20;;;2.40;99.90;;;;;;5026341;28;20056;-67
2021/12/21 10:54:42;;;;;;;16.50;6.20;;;2.40;99.90;;;;;;5027083;28;20120;-68
2021/12/21 10:57:15;;;;;;;15.18;5.90;;;2.50;99.90;;;;;;5041964;28;20587;-67
2021/12/21 10:59:45;;;;;;;13.95;6.45;;;2.60;99.90;;;;;;5030640;28;20099;-67
2021/12/21 11:02:20;;;;;;;16.80;6.30;;;2.70;99.90;;;;;;5025894;28;20052;-67
2021/12/21 11:04:51;;;;;;;18.63;6.13;;;2.70;99.90;;;;;;5040983;28;20033;-67
2021/12/21 11:07:40;;;;;;;15.90;8.02;;;2.80;99.90;;;;;;5029528;28;20069;-67
2021/12/21 11:10:17;;;;;;;15.25;6.38;;;2.90;99.90;;;;;;5051712;28;20029;-67
2021/12/21 11:12:48;;;;;;;12.45;5.30;;;3.00;99.90;;;;;;5048761;28;20091;-67
2021/12/21 11:15:20;;;;;;;11.90;6.45;;;3.10;99.90;;;;;;5029936;28;20041;-67
2021/12/21 11:17:47;;;;;;;11.52;5.38;;;3.10;99.90;;;;;;5049877;28;20049;-67
2021/12/21 11:20:14;;;;;;;14.40;4.78;;;3.10;99.90;;;;;;5048384;28;20085;-67
2021/12/21 11:22:43;;;;;;;13.85;4.65;;;3.20;99.90;;;;;;5045528;28;20127;-67
2021/12/21 11:25:09;;;;;;;10.38;5.10;;;3.20;99.90;;;;;;5042755;28;20120;-67
2021/12/21 11:27:37;;;;;;;10.30;4.10;;;3.20;99.90;;;;;;5046171;28;20064;-67
2021/12/21 11:30:07;;;;;;;10.07;4.57;;;3.30;99.90;;;;;;5042976;28;20481;-68
2021/12/21 11:32:39;;;;;;;13.80;4.53;;;3.40;99.90;;;;;;5043243;28;20123;-67
2021/12/21 11:37:45;;;;;;;10.77;4.95;;;3.40;99.90;;;;;;5025968;28;20056;-67
2021/12/21 11:40:14;;;;;;;7.63;3.92;;;3.50;99.90;;;;;;5054392;28;20079;-67
2021/12/21 11:42:52;;;;;;;10.63;4.28;;;3.60;99.90;;;;;;5016118;28;20068;-67
2021/12/21 11:46:18;;;;;;;12.90;4.63;;;3.70;99.90;;;;;;5047549;28;20098;-67
2021/12/21 11:48:53;;;;;;;11.60;4.13;;;3.70;99.50;;;;;;4963959;28;20113;-68
2021/12/21 11:51:24;;;;;;;9.45;3.80;;;3.80;99.90;;;;;;4947859;28;20515;-67
2021/12/21 11:53:50;;;;;;;11.05;4.65;;;3.90;99.90;;;;;;4993617;28;20111;-67
2021/12/21 11:56:26;;;;;;;8.07;3.43;;;3.90;99.30;;;;;;5031248;28;20119;-67
2021/12/21 11:58:54;;;;;;;15.05;4.03;;;3.90;99.00;;;;;;5047893;28;20032;-67
2021/12/21 12:01:23;;;;;;;13.18;4.80;;;4.00;99.90;;;;;;5050673;28;20037;-67
2021/12/21 12:04:11;;;;;;;9.25;4.50;;;4.10;99.90;;;;;;5045696;28;20059;-67
2021/12/21 12:06:52;;;;;;;15.00;4.90;;;4.10;99.00;;;;;;5025780;28;20452;-67
2021/12/21 12:09:27;;;;;;;12.35;5.05;;;4.20;99.90;;;;;;5031791;28;20039;-67
2021/12/21 12:12:04;;;;;;;9.18;4.50;;;4.20;99.60;;;;;;5027326;28;20084;-67
2021/12/21 12:14:30;;;;;;;7.68;3.88;;;4.30;99.10;;;;;;5046195;28;20199;-67
2021/12/21 12:17:01;;;;;;;13.52;4.57;;;4.40;99.80;;;;;;5028502;28;20266;-67
2021/12/21 12:19:32;;;;;;;10.38;4.57;;;4.40;99.20;;;;;;5047121;28;20197;-70
2021/12/21 12:22:08;;;;;;;18.25;5.70;;;4.40;99.50;;;;;;5050581;28;20517;-71
2021/12/21 12:24:42;;;;;;;9.23;5.15;;;4.50;99.40;;;;;;5043945;28;20036;-71
2021/12/21 12:27:21;;;;;;;11.25;4.43;;;4.50;99.70;;;;;;5044789;28;20047;-71
2021/12/21 12:29:55;;;;;;;11.70;5.28;;;4.60;99.30;;;;;;5010725;28;20048;-70
2021/12/21 12:32:33;;;;;;;10.00;4.85;;;4.60;98.90;;;;;;5046199;28;20048;-70
2021/12/21 12:35:06;;;;;;;13.02;4.95;;;4.60;98.10;;;;;;5030036;28;20033;-70
2021/12/21 12:37:32;;;;;;;13.25;4.55;;;4.60;97.90;;;;;;5047715;28;20183;-70
2021/12/21 12:40:10;;;;;;;8.90;4.13;;;4.70;98.70;;;;;;5046311;28;20116;-70
2021/12/21 12:42:36;;;;;;;8.63;4.38;;;4.70;98.70;;;;;;5044178;28;20041;-70
2021/12/21 12:45:19;;;;;;;10.13;4.53;;;4.70;98.00;;;;;;5041906;28;20048;-70
2021/12/21 12:47:52;;;;;;;12.98;4.72;;;4.70;97.60;;;;;;5028532;28;20037;-70
2021/12/21 12:50:28;;;;;;;9.95;4.80;;;4.70;98.40;;;;;;5048195;28;20123;-70
2021/12/21 12:53:03;;;;;;;9.82;4.10;;;4.80;98.60;;;;;;5033536;28;20068;-70
2021/12/21 12:55:53;;;;;;;14.23;4.13;;;4.80;97.80;;;;;;5049548;28;20447;-70
2021/12/21 12:58:22;;;;;;;8.45;4.72;;;4.70;96.30;;;;;;5046320;28;20068;-71
2021/12/21 13:01:20;;;;;;;11.40;4.63;;;4.60;96.40;;;;;;5032810;28;20037;-70
2021/12/21 13:03:45;;;;;;;11.15;4.35;;;4.60;96.70;;;;;;5049187;28;20452;-70
2021/12/21 13:06:12;;;;;;;12.30;4.50;;;4.50;97.40;;;;;;5050247;28;20040;-71
2021/12/21 13:08:38;;;;;;;;;;;4.50;97.60;;;;;;5049949;28;20037;-70
2021/12/21 13:11:05;;;;;;;9.15;4.05;;;4.40;97.00;;;;;;5053316;28;19923;-70
2021/12/21 13:13:49;;;;;;;9.95;4.18;;;4.40;97.90;;;;;;5045824;28;20421;-70
2021/12/21 13:16:21;;;;;;;10.43;4.65;;;4.30;97.50;;;;;;5028504;28;20350;-71
2021/12/21 13:18:53;;;;;;;10.20;4.22;;;4.20;97.40;;;;;;5049795;28;20060;-71
2021/12/21 13:21:25;;;;;;;10.75;3.80;;;4.20;97.10;;;;;;5048313;28;20037;-71
2021/12/21 13:23:59;;;;;;;8.45;4.05;;;4.20;97.40;;;;;;5024548;28;20044;-71
2021/12/21 13:26:33;;;;;;;9.43;4.57;;;4.10;97.60;;;;;;5027604;28;20072;-71
2021/12/21 13:28:59;;;;;;;11.27;4.55;;;4.10;98.00;;;;;;5048682;28;20087;-71
2021/12/21 13:31:25;;;;;;;13.20;5.50;;;4.00;97.70;;;;;;5030307;28;20041;-71
2021/12/21 13:33:57;;;;;;;9.63;4.33;;;4.00;97.80;;;;;;5030081;28;20153;-71
2021/12/21 13:36:49;;;;;;;8.65;4.13;;;4.00;97.70;;;;;;5047840;28;20041;-71
2021/12/21 13:39:18;;;;;;;11.35;4.35;;;4.00;98.10;;;;;;5046661;28;20465;-71
2021/12/21 13:41:49;;;;;;;9.60;4.05;;;4.00;98.60;;;;;;5045830;28;20489;-70
2021/12/21 13:44:35;;;;;;;9.48;3.95;;;3.90;98.60;;;;;;5042221;28;20622;-71
2021/12/21 13:47:04;;;;;;;9.23;3.65;;;3.90;99.00;;;;;;5047752;28;20045;-70
2021/12/21 13:49:30;;;;;;;12.77;4.32;;;3.90;99.20;;;;;;5028985;28;20433;-71
2021/12/21 13:51:58;;;;;;;10.60;3.83;;;3.80;99.30;;;;;;5044558;28;20185;-70
2021/12/21 13:54:26;;;;;;;11.30;4.85;;;3.80;99.60;;;;;;5048185;28;20045;-71
2021/12/21 13:56:52;;;;;;;8.45;3.67;;;3.80;99.40;;;;;;5047091;28;20041;-70
2021/12/21 13:59:19;;;;;;;10.02;4.25;;;3.70;99.70;;;;;;5043892;28;20514;-71
2021/12/21 14:01:48;;;;;;;8.95;3.75;;;3.70;99.80;;;;;;5047574;28;20044;-70
2021/12/21 14:04:16;;;;;;;9.20;3.80;;;3.70;99.80;;;;;;5045675;28;20033;-70
2021/12/21 14:06:44;;;;;;;12.00;4.30;;;3.60;99.90;;;;;;5029640;28;20045;-70
2021/12/21 14:09:12;;;;;;;10.07;4.32;;;3.70;99.90;;;;;;5029903;28;20044;-71